createdAt,value
2022-10-03T00:00:30.039Z,38.83
2022-10-03T00:01:30.078Z,43.02
2022-10-03T00:02:30.069Z,48.02
2022-10-03T00:03:29.997Z,39.96
2022-10-03T00:04:29.976Z,40.12
2022-10-03T00:05:29.970Z,44.47
2022-10-03T00:06:29.996Z,40.28
2022-10-03T00:07:29.949Z,42.38
2022-10-03T00:08:29.942Z,42.22
2022-10-03T00:09:29.931Z,44.31
2022-10-03T00:10:29.921Z,50.27
2022-10-03T00:11:29.941Z,40.44
2022-10-03T00:12:29.906Z,40.28
2022-10-03T00:13:29.902Z,40.28
2022-10-03T00:14:29.893Z,39.16
2022-10-03T00:15:29.877Z,38.19
2022-10-03T00:16:29.934Z,38.35
2022-10-03T00:17:29.867Z,38.35
2022-10-03T00:18:29.854Z,40.61
2022-10-03T00:19:29.849Z,42.54
2022-10-03T00:20:29.838Z,39.16
2022-10-03T00:21:29.864Z,40.93
2022-10-03T00:22:29.825Z,42.54
2022-10-03T00:23:29.820Z,38.51
2022-10-03T00:24:29.813Z,37.87
2022-10-03T00:25:29.828Z,37.54
2022-10-03T00:26:29.794Z,38.35
2022-10-03T00:27:29.782Z,37.87
2022-10-03T00:28:29.792Z,38.03
2022-10-03T00:29:29.764Z,38.03
2022-10-03T00:30:29.782Z,37.87
2022-10-03T00:31:29.801Z,38.83
2022-10-03T00:32:29.741Z,45.76
2022-10-03T00:33:29.726Z,43.02
2022-10-03T00:34:29.724Z,38.99
2022-10-03T00:35:29.747Z,39.16
2022-10-03T00:36:29.701Z,38.67
2022-10-03T00:37:29.698Z,37.38
2022-10-03T00:38:29.688Z,38.99
2022-10-03T00:39:29.667Z,42.22
2022-10-03T00:40:29.705Z,40.12
2022-10-03T00:41:29.660Z,43.18
2022-10-03T00:42:29.659Z,45.76
2022-10-03T00:43:29.646Z,45.76
2022-10-03T00:44:29.634Z,42.38
2022-10-03T00:45:29.655Z,41.09
2022-10-03T00:46:29.654Z,42.38
2022-10-03T00:47:29.624Z,39.16
2022-10-03T00:48:29.597Z,38.83
2022-10-03T00:49:29.591Z,39.96
2022-10-03T00:50:29.614Z,38.51
2022-10-03T00:51:29.576Z,38.99
2022-10-03T00:52:29.564Z,41.09
2022-10-03T00:53:29.561Z,43.99
2022-10-03T00:54:29.551Z,40.44
2022-10-03T00:55:29.580Z,38.51
2022-10-03T00:56:29.535Z,39.64
2022-10-03T00:57:29.530Z,42.86
2022-10-03T00:58:29.521Z,46.08
2022-10-03T00:59:29.516Z,42.70
2022-10-03T01:00:29.542Z,40.12
2022-10-03T01:01:29.510Z,38.99
2022-10-03T01:02:29.559Z,38.83
2022-10-03T01:03:29.526Z,39.80
2022-10-03T01:04:29.522Z,47.53
2022-10-03T01:05:29.468Z,43.99
2022-10-03T01:06:29.487Z,38.19
2022-10-03T01:07:29.456Z,38.19
2022-10-03T01:08:29.443Z,38.67
2022-10-03T01:09:29.436Z,38.67
2022-10-03T01:10:29.418Z,38.19
2022-10-03T01:11:29.511Z,39.48
2022-10-03T01:12:29.409Z,38.83
2022-10-03T01:13:29.391Z,37.87
2022-10-03T01:14:29.387Z,38.19
2022-10-03T01:15:29.383Z,38.51
2022-10-03T01:16:29.509Z,38.67
2022-10-03T01:17:29.372Z,38.51
2022-10-03T01:18:29.355Z,38.19
2022-10-03T01:19:29.348Z,39.64
2022-10-03T01:20:29.339Z,42.38
2022-10-03T01:21:29.434Z,42.22
2022-10-03T01:22:29.322Z,39.16
2022-10-03T01:23:29.317Z,38.83
2022-10-03T01:24:29.303Z,38.67
2022-10-03T01:25:29.301Z,38.99
2022-10-03T01:26:29.359Z,39.16
2022-10-03T01:27:29.281Z,40.61
2022-10-03T01:28:29.288Z,39.96
2022-10-03T01:29:29.267Z,39.16
2022-10-03T01:30:29.249Z,39.80
2022-10-03T01:31:29.312Z,39.32
2022-10-03T01:32:29.237Z,38.99
2022-10-03T01:33:29.220Z,39.64
2022-10-03T01:34:29.221Z,42.22
2022-10-03T01:35:29.216Z,40.77
2022-10-03T01:36:29.246Z,39.32
2022-10-03T01:37:29.194Z,39.80
2022-10-03T01:38:29.189Z,39.80
2022-10-03T01:39:29.176Z,38.67
2022-10-03T01:40:29.220Z,39.64
2022-10-03T01:41:29.201Z,39.96
2022-10-03T01:42:29.170Z,40.61
2022-10-03T01:43:29.150Z,43.02
2022-10-03T01:44:29.143Z,44.15
2022-10-03T01:45:29.128Z,39.16
2022-10-03T01:46:29.230Z,39.16
2022-10-03T01:47:29.119Z,38.51
2022-10-03T01:48:29.106Z,41.73
2022-10-03T01:49:29.093Z,41.09
2022-10-03T01:50:29.112Z,38.83
2022-10-03T01:51:29.106Z,40.28
2022-10-03T01:52:29.074Z,39.16
2022-10-03T01:53:29.062Z,42.22
2022-10-03T01:54:29.056Z,43.18
2022-10-03T01:55:29.068Z,41.41
2022-10-03T01:56:29.032Z,42.38
2022-10-03T01:57:29.067Z,40.28
2022-10-03T01:58:29.021Z,40.77
2022-10-03T01:59:29.004Z,51.40
2022-10-03T02:00:29.026Z,41.41
2022-10-03T02:01:28.999Z,38.51
2022-10-03T02:02:29.067Z,38.35
2022-10-03T02:03:28.969Z,38.19
2022-10-03T02:04:28.957Z,38.03
2022-10-03T02:05:28.980Z,38.19
2022-10-03T02:06:28.942Z,38.67
2022-10-03T02:07:28.932Z,38.67
2022-10-03T02:08:28.939Z,38.51
2022-10-03T02:09:28.950Z,41.41
2022-10-03T02:10:28.914Z,38.03
2022-10-03T02:11:28.908Z,38.19
2022-10-03T02:12:28.899Z,38.19
2022-10-03T02:13:28.890Z,38.51
2022-10-03T02:14:28.920Z,41.57
2022-10-03T02:15:28.871Z,43.99
2022-10-03T02:16:28.912Z,40.44
2022-10-03T02:17:28.885Z,39.16
2022-10-03T02:18:28.854Z,39.16
2022-10-03T02:19:28.863Z,40.77
2022-10-03T02:20:28.820Z,38.35
2022-10-03T02:21:28.836Z,38.19
2022-10-03T02:22:28.808Z,38.03
2022-10-03T02:23:28.804Z,38.51
2022-10-03T02:24:28.824Z,38.51
2022-10-03T02:25:28.786Z,38.67
2022-10-03T02:26:28.775Z,40.28
2022-10-03T02:27:28.763Z,38.35
2022-10-03T02:28:29.790Z,38.51
2022-10-03T02:29:28.783Z,38.35
2022-10-03T02:30:28.734Z,39.48
2022-10-03T02:31:28.818Z,39.96
2022-10-03T02:32:28.723Z,41.57
2022-10-03T02:33:28.702Z,42.70
2022-10-03T02:34:29.742Z,39.96
2022-10-03T02:35:28.698Z,40.44
2022-10-03T02:36:28.689Z,38.99
2022-10-03T02:37:28.676Z,38.99
2022-10-03T02:38:28.673Z,40.12
2022-10-03T02:39:28.665Z,38.19
2022-10-03T02:40:28.685Z,38.67
2022-10-03T02:41:28.642Z,38.83
2022-10-03T02:42:28.627Z,38.67
2022-10-03T02:43:29.633Z,50.60
2022-10-03T02:44:28.632Z,43.83
2022-10-03T02:45:28.700Z,41.89
2022-10-03T02:46:28.624Z,38.51
2022-10-03T02:47:28.602Z,38.51
2022-10-03T02:48:32.561Z,49.47
2022-10-03T02:49:29.583Z,44.96
2022-10-03T02:50:28.608Z,39.80
2022-10-03T02:51:28.572Z,40.12
2022-10-03T02:52:28.558Z,40.77
2022-10-03T02:53:28.543Z,40.77
2022-10-03T02:54:28.539Z,40.28
2022-10-03T02:55:28.557Z,39.16
2022-10-03T02:56:28.584Z,38.67
2022-10-03T02:57:28.514Z,49.31
2022-10-03T02:58:28.508Z,40.61
2022-10-03T02:59:28.504Z,38.51
2022-10-03T03:00:28.515Z,39.16
2022-10-03T03:01:28.623Z,42.86
2022-10-03T03:02:28.534Z,44.47
2022-10-03T03:03:28.461Z,43.34
2022-10-03T03:04:28.456Z,43.99
2022-10-03T03:05:28.478Z,40.93
2022-10-03T03:06:28.508Z,42.22
2022-10-03T03:07:28.430Z,43.67
2022-10-03T03:08:28.426Z,41.41
2022-10-03T03:09:28.411Z,39.16
2022-10-03T03:10:28.435Z,39.96
2022-10-03T03:11:28.400Z,39.96
2022-10-03T03:12:28.390Z,40.12
2022-10-03T03:13:28.386Z,38.99
2022-10-03T03:14:28.364Z,40.12
2022-10-03T03:15:28.425Z,45.44
2022-10-03T03:16:28.475Z,41.73
2022-10-03T03:17:28.344Z,41.57
2022-10-03T03:18:28.345Z,42.70
2022-10-03T03:19:28.331Z,46.73
2022-10-03T03:20:28.364Z,44.79
2022-10-03T03:21:28.321Z,40.77
2022-10-03T03:22:28.307Z,40.28
2022-10-03T03:23:28.297Z,42.22
2022-10-03T03:24:28.299Z,41.09
2022-10-03T03:25:28.312Z,50.43
2022-10-03T03:26:28.295Z,42.06
2022-10-03T03:27:28.274Z,44.31
2022-10-03T03:28:28.278Z,41.57
2022-10-03T03:29:28.251Z,41.09
2022-10-03T03:30:28.236Z,48.98
2022-10-03T03:31:28.287Z,42.22
2022-10-03T03:32:28.246Z,40.77
2022-10-03T03:33:28.247Z,48.02
2022-10-03T03:34:28.219Z,49.31
2022-10-03T03:35:28.199Z,43.83
2022-10-03T03:36:28.239Z,42.86
2022-10-03T03:37:28.191Z,43.34
2022-10-03T03:38:28.173Z,43.51
2022-10-03T03:39:28.174Z,43.99
2022-10-03T03:40:28.186Z,48.18
2022-10-03T03:41:28.151Z,45.12
2022-10-03T03:42:28.141Z,41.57
2022-10-03T03:43:28.133Z,40.44
2022-10-03T03:44:28.125Z,46.73
2022-10-03T03:45:28.168Z,39.64
2022-10-03T03:46:28.105Z,44.47
2022-10-03T03:47:28.104Z,43.99
2022-10-03T03:48:28.091Z,40.61
2022-10-03T03:49:28.080Z,43.02
2022-10-03T03:50:28.067Z,41.73
2022-10-03T03:51:28.091Z,47.37
2022-10-03T03:52:28.057Z,42.86
2022-10-03T03:53:28.053Z,44.15
2022-10-03T03:54:28.041Z,43.67
2022-10-03T03:55:28.055Z,46.41
2022-10-03T03:56:28.058Z,49.79
2022-10-03T03:57:28.027Z,39.48
2022-10-03T03:58:28.067Z,39.32
2022-10-03T03:59:27.998Z,39.48
2022-10-03T04:00:28.003Z,40.77
2022-10-03T04:01:28.047Z,38.99
2022-10-03T04:02:28.012Z,41.25
2022-10-03T04:03:27.966Z,42.38
2022-10-03T04:04:27.970Z,43.99
2022-10-03T04:05:28.953Z,40.28
2022-10-03T04:06:27.982Z,38.67
2022-10-03T04:07:27.938Z,38.83
2022-10-03T04:08:27.935Z,38.99
2022-10-03T04:09:27.911Z,42.70
2022-10-03T04:10:27.910Z,46.73
2022-10-03T04:11:27.920Z,57.04
2022-10-03T04:12:27.886Z,49.79
2022-10-03T04:13:27.876Z,43.34
2022-10-03T04:14:27.873Z,39.48
2022-10-03T04:15:27.858Z,39.64
2022-10-03T04:16:27.932Z,40.77
2022-10-03T04:17:27.845Z,38.99
2022-10-03T04:18:27.836Z,39.48
2022-10-03T04:19:27.841Z,41.25
2022-10-03T04:20:27.824Z,40.77
2022-10-03T04:21:27.854Z,40.28
2022-10-03T04:22:27.817Z,40.28
2022-10-03T04:23:27.799Z,41.73
2022-10-03T04:24:27.796Z,41.25
2022-10-03T04:25:27.784Z,44.79
2022-10-03T04:26:27.804Z,44.63
2022-10-03T04:27:27.777Z,40.93
2022-10-03T04:28:27.784Z,41.41
2022-10-03T04:29:27.750Z,41.73
2022-10-03T04:30:27.738Z,43.67
2022-10-03T04:31:27.822Z,49.47
2022-10-03T04:32:27.726Z,43.51
2022-10-03T04:33:27.724Z,39.32
2022-10-03T04:34:27.709Z,39.16
2022-10-03T04:35:27.697Z,40.12
2022-10-03T04:36:27.720Z,43.02
2022-10-03T04:37:27.682Z,43.02
2022-10-03T04:38:27.670Z,51.88
2022-10-03T04:39:27.672Z,41.09
2022-10-03T04:40:27.662Z,39.16
2022-10-03T04:41:27.688Z,42.86
2022-10-03T04:42:27.643Z,46.89
2022-10-03T04:43:27.632Z,50.43
2022-10-03T04:44:27.621Z,51.56
2022-10-03T04:45:27.628Z,49.31
2022-10-03T04:46:27.623Z,41.41
2022-10-03T04:47:28.595Z,43.67
2022-10-03T04:48:27.589Z,40.77
2022-10-03T04:49:27.587Z,47.86
2022-10-03T04:50:27.575Z,45.76
2022-10-03T04:51:27.614Z,46.57
2022-10-03T04:52:27.549Z,41.73
2022-10-03T04:53:27.552Z,44.79
2022-10-03T04:54:27.551Z,41.41
2022-10-03T04:55:27.557Z,45.60
2022-10-03T04:56:27.560Z,40.77
2022-10-03T04:57:27.521Z,40.12
2022-10-03T04:58:27.509Z,38.35
2022-10-03T04:59:27.497Z,38.35
2022-10-03T05:00:27.519Z,38.83
2022-10-03T05:01:27.622Z,39.32
2022-10-03T05:02:27.563Z,38.51
2022-10-03T05:03:27.463Z,42.06
2022-10-03T05:04:27.518Z,44.47
2022-10-03T05:05:27.561Z,47.05
2022-10-03T05:06:27.468Z,44.79
2022-10-03T05:07:27.425Z,44.63
2022-10-03T05:08:27.414Z,44.63
2022-10-03T05:09:27.411Z,43.02
2022-10-03T05:10:27.416Z,44.79
2022-10-03T05:11:27.432Z,43.83
2022-10-03T05:12:27.393Z,44.96
2022-10-03T05:13:27.386Z,40.28
2022-10-03T05:14:27.384Z,41.09
2022-10-03T05:15:27.378Z,47.05
2022-10-03T05:16:27.439Z,43.83
2022-10-03T05:17:27.356Z,43.18
2022-10-03T05:18:27.355Z,41.89
2022-10-03T05:19:27.320Z,42.38
2022-10-03T05:20:28.337Z,45.28
2022-10-03T05:21:27.339Z,50.60
2022-10-03T05:22:27.302Z,40.12
2022-10-03T05:23:27.295Z,41.09
2022-10-03T05:24:27.284Z,47.37
2022-10-03T05:25:27.273Z,45.44
2022-10-03T05:26:46.494Z,46.89
2022-10-03T05:27:29.266Z,47.05
2022-10-03T05:28:27.304Z,41.09
2022-10-03T05:29:27.238Z,41.41
2022-10-03T05:30:27.234Z,46.57
2022-10-03T05:31:27.336Z,45.60
2022-10-03T05:32:27.254Z,42.38
2022-10-03T05:33:27.207Z,42.86
2022-10-03T05:34:27.398Z,44.96
2022-10-03T05:35:27.193Z,42.38
2022-10-03T05:36:27.271Z,43.02
2022-10-03T05:37:27.180Z,44.96
2022-10-03T05:38:27.191Z,52.21
2022-10-03T05:39:27.166Z,45.76
2022-10-03T05:40:27.168Z,48.18
2022-10-03T05:41:27.179Z,43.99
2022-10-03T05:42:27.139Z,44.96
2022-10-03T05:43:27.134Z,55.27
2022-10-03T05:44:27.119Z,41.73
2022-10-03T05:45:27.149Z,41.89
2022-10-03T05:46:27.252Z,42.06
2022-10-03T05:47:27.091Z,44.63
2022-10-03T05:48:27.095Z,42.86
2022-10-03T05:49:27.098Z,41.41
2022-10-03T05:50:27.073Z,48.02
2022-10-03T05:51:27.105Z,40.44
2022-10-03T05:52:27.057Z,41.41
2022-10-03T05:53:27.042Z,48.50
2022-10-03T05:54:28.047Z,49.15
2022-10-03T05:55:27.095Z,40.12
2022-10-03T05:56:27.100Z,37.06
2022-10-03T05:57:27.048Z,37.06
2022-10-03T05:58:27.009Z,37.22
2022-10-03T05:59:27.066Z,36.90
2022-10-03T06:00:27.007Z,37.06
2022-10-03T06:01:26.974Z,48.50
2022-10-03T06:02:27.254Z,46.57
2022-10-03T06:03:27.030Z,49.15
2022-10-03T06:04:26.952Z,43.99
2022-10-03T06:05:26.948Z,43.99
2022-10-03T06:06:26.940Z,48.66
2022-10-03T06:07:26.989Z,48.34
2022-10-03T06:08:26.924Z,39.96
2022-10-03T06:09:26.939Z,42.38
2022-10-03T06:10:26.901Z,38.99
2022-10-03T06:11:26.893Z,45.92
2022-10-03T06:12:26.914Z,42.38
2022-10-03T06:14:34.030Z,44.79
2022-10-03T06:15:26.863Z,43.34
2022-10-03T06:16:26.922Z,38.19
2022-10-03T06:17:26.880Z,44.63
2022-10-03T06:18:26.837Z,42.38
2022-10-03T06:19:45.711Z,47.05
2022-10-03T06:20:26.823Z,38.35
2022-10-03T06:22:00.577Z,39.64
2022-10-03T06:22:26.835Z,47.86
2022-10-03T06:23:26.806Z,44.31
2022-10-03T06:24:26.807Z,40.93
2022-10-03T06:25:26.781Z,41.41
2022-10-03T06:26:41.578Z,41.57
2022-10-03T06:27:26.798Z,42.38
2022-10-03T06:28:26.836Z,44.47
2022-10-03T06:29:26.749Z,40.93
2022-10-03T06:30:26.798Z,41.73
2022-10-03T06:31:31.709Z,45.44
2022-10-03T06:32:28.763Z,48.34
2022-10-03T06:33:26.796Z,52.85
2022-10-03T06:34:26.711Z,43.83
2022-10-03T06:35:27.285Z,39.16
2022-10-03T06:36:26.693Z,40.44
2022-10-03T06:37:26.712Z,39.80
2022-10-03T06:38:26.689Z,47.05
2022-10-03T06:40:17.083Z,46.89
2022-10-03T06:40:26.705Z,60.75
2022-10-03T06:41:26.672Z,42.86
2022-10-03T06:42:26.673Z,43.51
2022-10-03T06:43:26.621Z,53.33
2022-10-03T06:44:27.695Z,49.15
2022-10-03T06:45:30.807Z,42.06
2022-10-03T06:46:28.313Z,51.08
2022-10-03T06:47:26.654Z,54.95
2022-10-03T06:48:26.591Z,45.12
2022-10-03T06:49:41.205Z,52.21
2022-10-03T06:50:33.225Z,45.44
2022-10-03T06:51:52.091Z,44.31
2022-10-03T06:52:27.295Z,44.96
2022-10-03T06:53:26.540Z,47.05
2022-10-03T06:54:27.569Z,52.05
2022-10-03T06:55:26.572Z,54.46
2022-10-03T06:56:26.588Z,52.53
2022-10-03T06:57:26.510Z,54.62
2022-10-03T06:58:26.528Z,42.86
2022-10-03T06:59:26.539Z,42.22
2022-10-03T07:00:26.492Z,46.57
2022-10-03T07:01:26.509Z,63.00
2022-10-03T07:02:26.769Z,41.73
2022-10-03T07:03:26.516Z,43.51
2022-10-03T07:04:26.447Z,41.25
2022-10-03T07:05:26.481Z,48.18
2022-10-03T07:06:26.431Z,46.41
2022-10-03T07:07:26.425Z,50.60
2022-10-03T07:08:26.454Z,49.79
2022-10-03T07:09:26.409Z,48.18
2022-10-03T07:10:26.418Z,39.64
2022-10-03T07:11:26.396Z,45.76
2022-10-03T07:12:26.386Z,45.44
2022-10-03T07:13:26.412Z,49.15
2022-10-03T07:14:26.364Z,46.08
2022-10-03T07:15:43.600Z,38.51
2022-10-03T07:16:28.548Z,41.25
2022-10-03T07:17:26.402Z,43.99
2022-10-03T07:18:26.356Z,48.02
2022-10-03T07:19:26.320Z,45.44
2022-10-03T07:20:26.310Z,45.12
2022-10-03T07:21:26.306Z,48.50
2022-10-03T07:22:26.364Z,48.34
2022-10-03T07:23:26.289Z,48.98
2022-10-03T07:24:26.277Z,48.18
2022-10-03T07:25:26.282Z,50.76
2022-10-03T07:26:26.269Z,46.89
2022-10-03T07:27:26.328Z,51.08
2022-10-03T07:28:26.273Z,46.25
2022-10-03T07:29:26.235Z,43.99
2022-10-03T07:30:26.227Z,44.79
2022-10-03T07:31:26.253Z,43.99
2022-10-03T07:32:26.217Z,49.31
2022-10-03T07:33:26.275Z,49.15
2022-10-03T07:34:26.195Z,43.34
2022-10-03T07:35:26.198Z,44.15
2022-10-03T07:36:26.183Z,48.66
2022-10-03T07:37:26.164Z,59.78
2022-10-03T07:38:26.185Z,48.82
2022-10-03T07:39:26.145Z,45.28
2022-10-03T07:40:26.131Z,46.41
2022-10-03T07:41:26.133Z,59.30
2022-10-03T07:42:26.150Z,52.37
2022-10-03T07:43:26.114Z,47.05
2022-10-03T07:44:26.102Z,51.72
2022-10-03T07:45:26.092Z,45.44
2022-10-03T07:46:26.121Z,43.51
2022-10-03T07:47:26.124Z,61.07
2022-10-03T07:48:26.089Z,46.41
2022-10-03T07:49:26.127Z,48.82
2022-10-03T07:50:26.055Z,51.72
2022-10-03T07:51:26.047Z,42.38
2022-10-03T07:52:26.063Z,41.41
2022-10-03T07:53:26.599Z,49.95
2022-10-03T07:54:26.021Z,55.91
2022-10-03T07:55:26.012Z,49.79
2022-10-03T07:56:25.999Z,52.53
2022-10-03T07:57:26.035Z,48.50
2022-10-03T07:58:25.988Z,46.41
2022-10-03T07:59:25.986Z,46.41
2022-10-03T08:00:25.971Z,44.47
2022-10-03T08:01:26.011Z,43.51
2022-10-03T08:02:26.025Z,45.92
2022-10-03T08:03:26.009Z,46.08
2022-10-03T08:04:25.936Z,52.05
2022-10-03T08:05:25.928Z,53.82
2022-10-03T08:06:25.929Z,45.28
2022-10-03T08:07:25.911Z,50.43
2022-10-03T08:08:25.941Z,50.60
2022-10-03T08:09:25.897Z,50.92
2022-10-03T08:10:25.893Z,50.43
2022-10-03T08:11:25.889Z,51.72
2022-10-03T08:12:25.875Z,44.79
2022-10-03T08:13:25.946Z,52.37
2022-10-03T08:14:25.855Z,49.79
2022-10-03T08:15:25.849Z,45.44
2022-10-03T08:16:25.845Z,51.24
2022-10-03T08:17:25.833Z,56.56
2022-10-03T08:18:25.856Z,52.37
2022-10-03T08:19:25.814Z,53.01
2022-10-03T08:20:25.806Z,47.53
2022-10-03T08:21:25.795Z,56.24
2022-10-03T08:22:25.786Z,48.34
2022-10-03T08:23:25.827Z,46.73
2022-10-03T08:24:25.802Z,58.65
2022-10-03T08:25:25.772Z,51.08
2022-10-03T08:26:25.772Z,48.18
2022-10-03T08:27:25.755Z,53.01
2022-10-03T08:28:25.806Z,51.08
2022-10-03T08:29:25.760Z,48.02
2022-10-03T08:30:25.731Z,47.05
2022-10-03T08:31:25.805Z,59.30
2022-10-03T08:32:25.702Z,54.62
2022-10-03T08:33:26.723Z,53.17
2022-10-03T08:34:25.692Z,50.76
2022-10-03T08:35:25.674Z,52.21
2022-10-03T08:36:25.673Z,48.50
2022-10-03T08:37:25.665Z,55.91
2022-10-03T08:38:28.025Z,45.60
2022-10-03T08:39:26.649Z,45.44
2022-10-03T08:40:25.633Z,57.52
2022-10-03T08:41:25.623Z,47.86
2022-10-03T08:42:25.633Z,54.95
2022-10-03T08:43:25.638Z,51.88
2022-10-03T08:44:30.226Z,55.27
2022-10-03T08:45:26.631Z,49.95
2022-10-03T08:46:25.685Z,57.85
2022-10-03T08:47:25.577Z,60.10
2022-10-03T08:48:25.594Z,55.59
2022-10-03T08:49:25.568Z,59.30
2022-10-03T08:50:25.563Z,58.97
2022-10-03T08:51:25.541Z,55.27
2022-10-03T08:52:25.554Z,54.46
2022-10-03T08:53:25.579Z,58.33
2022-10-03T08:54:25.522Z,54.95
2022-10-03T08:55:25.507Z,51.08
2022-10-03T08:56:25.522Z,55.75
2022-10-03T08:57:25.502Z,51.88
2022-10-03T08:58:25.519Z,52.53
2022-10-03T08:59:25.480Z,52.05
2022-10-03T09:00:25.465Z,57.20
2022-10-03T09:01:25.549Z,53.50
2022-10-03T09:02:25.538Z,57.69
2022-10-03T09:03:36.797Z,58.97
2022-10-03T09:04:27.433Z,59.14
2022-10-03T09:05:25.431Z,54.46
2022-10-03T09:06:25.417Z,54.46
2022-10-03T09:07:25.926Z,59.46
2022-10-03T09:08:25.426Z,55.11
2022-10-03T09:09:25.386Z,50.27
2022-10-03T09:10:25.391Z,57.69
2022-10-03T09:11:25.381Z,51.88
2022-10-03T09:12:25.372Z,55.59
2022-10-03T09:13:25.380Z,54.46
2022-10-03T09:14:25.350Z,53.33
2022-10-03T09:15:25.344Z,50.92
2022-10-03T09:16:25.360Z,50.76
2022-10-03T09:17:25.324Z,51.08
2022-10-03T09:18:25.343Z,58.81
2022-10-03T09:19:25.308Z,54.95
2022-10-03T09:20:25.291Z,50.27
2022-10-03T09:21:25.288Z,47.05
2022-10-03T09:22:25.281Z,60.26
2022-10-03T09:23:25.300Z,54.95
2022-10-03T09:24:25.264Z,51.40
2022-10-03T09:25:25.255Z,50.43
2022-10-03T09:26:25.246Z,57.85
2022-10-03T09:27:25.242Z,51.08
2022-10-03T09:28:25.785Z,47.86
2022-10-03T09:29:26.229Z,50.76
2022-10-03T09:30:25.218Z,50.60
2022-10-03T09:31:25.283Z,41.89
2022-10-03T09:32:25.194Z,51.72
2022-10-03T09:33:25.227Z,62.04
2022-10-03T09:34:25.185Z,49.31
2022-10-03T09:35:25.176Z,46.57
2022-10-03T09:36:25.201Z,60.75
2022-10-03T09:37:25.156Z,63.16
2022-10-03T09:38:25.177Z,58.17
2022-10-03T09:39:25.142Z,51.88
2022-10-03T09:40:25.124Z,54.79
2022-10-03T09:41:25.125Z,51.24
2022-10-03T09:42:25.164Z,50.11
2022-10-03T09:43:25.135Z,62.36
2022-10-03T09:44:25.096Z,48.02
2022-10-03T09:45:25.092Z,45.12
2022-10-03T09:46:25.110Z,45.92
2022-10-03T09:47:25.069Z,54.46
2022-10-03T09:48:25.092Z,54.95
2022-10-03T09:49:25.066Z,47.37
2022-10-03T09:50:25.044Z,47.86
2022-10-03T09:51:25.043Z,53.98
2022-10-03T09:52:25.029Z,47.70
2022-10-03T09:53:25.022Z,55.91
2022-10-03T09:54:25.041Z,50.11
2022-10-03T09:55:25.000Z,50.11
2022-10-03T09:56:25.001Z,54.14
2022-10-03T09:57:24.981Z,47.53
2022-10-03T09:58:24.981Z,46.08
2022-10-03T09:59:25.000Z,50.60
2022-10-03T10:00:24.955Z,55.59
2022-10-03T10:01:25.068Z,45.92
2022-10-03T10:02:24.951Z,56.24
2022-10-03T10:03:24.979Z,58.97
2022-10-03T10:04:50.290Z,50.92
2022-10-03T10:05:26.917Z,48.34
2022-10-03T10:06:25.195Z,61.07
2022-10-03T10:07:25.909Z,48.02
2022-10-03T10:08:24.930Z,54.14
2022-10-03T10:09:24.927Z,61.23
2022-10-03T10:10:24.882Z,52.05
2022-10-03T10:11:24.875Z,50.11
2022-10-03T10:12:24.856Z,56.72
2022-10-03T10:13:24.851Z,56.24
2022-10-03T10:14:24.872Z,52.53
2022-10-03T10:15:24.840Z,48.66
2022-10-03T10:16:24.856Z,56.88
2022-10-03T10:17:24.817Z,51.40
2022-10-03T10:18:24.813Z,55.75
2022-10-03T10:19:24.835Z,56.40
2022-10-03T10:20:24.793Z,56.24
2022-10-03T10:21:24.790Z,49.63
2022-10-03T10:22:24.774Z,56.40
2022-10-03T10:23:24.768Z,51.56
2022-10-03T10:24:24.788Z,49.79
2022-10-03T10:25:24.824Z,52.53
2022-10-03T10:26:28.728Z,63.97
2022-10-03T10:27:25.738Z,50.43
2022-10-03T10:28:24.793Z,57.04
2022-10-03T10:29:24.750Z,56.24
2022-10-03T10:30:24.702Z,49.95
2022-10-03T10:31:25.789Z,53.17
2022-10-03T10:32:24.701Z,50.11
2022-10-03T10:33:24.696Z,59.46
2022-10-03T10:34:24.702Z,56.72
2022-10-03T10:35:24.669Z,59.78
2022-10-03T10:36:24.691Z,50.43
2022-10-03T10:37:24.689Z,56.40
2022-10-03T10:38:24.673Z,60.75
2022-10-03T10:39:24.654Z,51.24
2022-10-03T10:40:24.630Z,53.01
2022-10-03T10:41:24.615Z,50.11
2022-10-03T10:42:24.606Z,49.47
2022-10-03T10:43:24.596Z,50.27
2022-10-03T10:44:24.614Z,61.55
2022-10-03T10:45:24.587Z,58.17
2022-10-03T10:46:24.623Z,50.11
2022-10-03T10:47:24.561Z,55.27
2022-10-03T10:48:24.601Z,51.08
2022-10-03T10:49:24.579Z,46.25
2022-10-03T10:50:24.542Z,50.76
2022-10-03T10:51:24.532Z,52.21
2022-10-03T10:52:24.564Z,46.73
2022-10-03T10:53:24.550Z,54.14
2022-10-03T10:54:24.539Z,58.97
2022-10-03T10:55:24.517Z,58.17
2022-10-03T10:56:24.507Z,54.95
2022-10-03T10:57:24.512Z,56.07
2022-10-03T10:58:24.512Z,48.66
2022-10-03T10:59:24.524Z,47.53
2022-10-03T11:00:24.544Z,51.88
2022-10-03T11:01:24.459Z,51.08
2022-10-03T11:02:24.454Z,49.47
2022-10-03T11:03:24.461Z,51.56
2022-10-03T11:04:24.538Z,48.98
2022-10-03T11:05:24.435Z,54.62
2022-10-03T11:06:24.429Z,53.01
2022-10-03T11:07:24.419Z,55.27
2022-10-03T11:08:24.414Z,54.62
2022-10-03T11:09:24.447Z,60.91
2022-10-03T11:10:24.382Z,49.15
2022-10-03T11:11:24.383Z,54.95
2022-10-03T11:12:24.364Z,50.43
2022-10-03T11:13:24.359Z,53.66
2022-10-03T11:14:24.384Z,54.14
2022-10-03T11:15:24.402Z,51.24
2022-10-03T11:16:24.348Z,61.39
2022-10-03T11:17:24.334Z,53.98
2022-10-03T11:18:24.319Z,48.50
2022-10-03T11:19:24.340Z,53.17
2022-10-03T11:20:24.292Z,55.91
2022-10-03T11:21:24.319Z,48.98
2022-10-03T11:22:24.289Z,46.41
2022-10-03T11:23:24.283Z,58.01
2022-10-03T11:24:24.273Z,53.17
2022-10-03T11:25:24.293Z,44.47
2022-10-03T11:26:24.253Z,53.33
2022-10-03T11:27:24.263Z,51.40
2022-10-03T11:28:27.192Z,47.53
2022-10-03T11:29:25.220Z,51.72
2022-10-03T11:30:24.248Z,50.76
2022-10-03T11:31:24.253Z,48.50
2022-10-03T11:32:24.205Z,59.62
2022-10-03T11:33:24.204Z,58.01
2022-10-03T11:34:24.182Z,57.04
2022-10-03T11:35:24.210Z,49.95
2022-10-03T11:36:24.175Z,56.56
2022-10-03T11:37:24.164Z,52.85
2022-10-03T11:38:24.159Z,48.50
2022-10-03T11:39:24.145Z,62.20
2022-10-03T11:40:24.166Z,48.18
2022-10-03T11:41:24.127Z,53.98
2022-10-03T11:42:24.127Z,59.78
2022-10-03T11:43:24.108Z,48.66
2022-10-03T11:44:24.128Z,47.05
2022-10-03T11:45:24.105Z,52.69
2022-10-03T11:46:24.106Z,60.59
2022-10-03T11:47:24.077Z,56.72
2022-10-03T11:48:24.062Z,47.05
2022-10-03T11:49:24.086Z,54.14
2022-10-03T11:50:24.043Z,54.62
2022-10-03T11:51:24.041Z,60.91
2022-10-03T11:52:24.028Z,55.43
2022-10-03T11:53:24.013Z,55.27
2022-10-03T11:54:31.494Z,53.17
2022-10-03T11:55:26.009Z,50.27
2022-10-03T11:56:24.002Z,55.59
2022-10-03T11:57:23.996Z,47.21
2022-10-03T11:58:23.983Z,47.21
2022-10-03T11:59:26.877Z,49.31
2022-10-03T12:00:24.991Z,57.20
2022-10-03T12:01:23.959Z,53.17
2022-10-03T12:02:23.999Z,47.53
2022-10-03T12:03:24.012Z,51.56
2022-10-03T12:04:23.964Z,50.43
2022-10-03T12:05:23.924Z,49.47
2022-10-03T12:06:23.913Z,47.86
2022-10-03T12:07:23.907Z,57.85
2022-10-03T12:08:23.905Z,60.59
2022-10-03T12:09:23.915Z,48.02
2022-10-03T12:10:23.871Z,52.53
2022-10-03T12:11:23.880Z,58.33
2022-10-03T12:12:23.864Z,56.88
2022-10-03T12:13:23.853Z,47.53
2022-10-03T12:14:23.878Z,49.31
2022-10-03T12:15:24.830Z,56.56
2022-10-03T12:16:23.865Z,56.88
2022-10-03T12:17:23.811Z,49.79
2022-10-03T12:18:23.805Z,55.59
2022-10-03T12:19:23.851Z,57.20
2022-10-03T12:20:23.794Z,50.11
2022-10-03T12:21:23.768Z,56.24
2022-10-03T12:22:24.776Z,58.01
2022-10-03T12:23:23.756Z,58.81
2022-10-03T12:24:24.785Z,49.15
2022-10-03T12:25:23.732Z,46.89
2022-10-03T12:26:23.740Z,48.18
2022-10-03T12:27:23.719Z,58.33
2022-10-03T12:28:23.775Z,51.08
2022-10-03T12:29:23.737Z,55.43
2022-10-03T12:30:23.694Z,52.21
2022-10-03T12:31:23.756Z,47.37
2022-10-03T12:32:23.680Z,48.34
2022-10-03T12:33:23.680Z,49.63
2022-10-03T12:34:23.697Z,52.85
2022-10-03T12:35:23.653Z,54.79
2022-10-03T12:36:23.648Z,49.63
2022-10-03T12:37:23.639Z,54.79
2022-10-03T12:38:23.634Z,54.62
2022-10-03T12:39:23.643Z,61.07
2022-10-03T12:40:23.650Z,55.11
2022-10-03T12:41:23.614Z,50.11
2022-10-03T12:43:10.242Z,52.53
2022-10-03T12:43:23.591Z,63.49
2022-10-03T12:44:23.583Z,60.91
2022-10-03T12:45:23.604Z,56.56
2022-10-03T12:46:23.597Z,61.55
2022-10-03T12:47:37.635Z,52.05
2022-10-03T12:48:25.601Z,53.50
2022-10-03T12:49:23.538Z,50.92
2022-10-03T12:50:23.563Z,54.79
2022-10-03T12:51:23.532Z,58.01
2022-10-03T12:52:23.512Z,51.72
2022-10-03T12:53:23.509Z,59.30